sensor_id;sensor_type;location;lat;lon;timestamp;pressure;altitude;pressure_sealevel;temperature;humidity
44001;BME280;29660;42.892;24.710;2024-02-14T00:03:31;96648.56;;;6.28;100.00
44001;BME280;29660;42.892;24.710;2024-02-14T00:08:53;96495.44;;;5.25;100.00
44001;BME280;29660;42.892;24.710;2024-02-14T00:14:15;96663.69;;;6.33;100.00
44001;BME280;29660;42.892;24.710;2024-02-14T00:19:37;96664.22;;;6.20;100.00
44001;BME280;29660;42.892;24.710;2024-02-14T00:25:00;96668.72;;;6.19;100.00
44001;BME280;29660;42.892;24.710;2024-02-14T00:30:22;96507.59;;;5.10;100.00
44001;BME280;29660;42.892;24.710;2024-02-14T00:35:45;96687.25;;;6.19;100.00
44001;BME280;29660;42.892;24.710;2024-02-14T00:41:07;96678.53;;;6.29;100.00
44001;BME280;29660;42.892;24.710;2024-02-14T00:46:32;96635.34;;;5.87;100.00
44001;BME280;29660;42.892;24.710;2024-02-14T00:51:54;96682.75;;;6.20;100.00
44001;BME280;29660;42.892;24.710;2024-02-14T00:57:17;96689.91;;;6.29;100.00
44001;BME280;29660;42.892;24.710;2024-02-14T01:02:40;96660.78;;;6.29;100.00
44001;BME280;29660;42.892;24.710;2024-02-14T01:08:02;96671.09;;;6.15;100.00
44001;BME280;29660;42.892;24.710;2024-02-14T01:13:24;96684.06;;;6.27;100.00
44001;BME280;29660;42.892;24.710;2024-02-14T01:18:46;96684.63;;;6.19;100.00
44001;BME280;29660;42.892;24.710;2024-02-14T01:24:08;96624.25;;;5.80;100.00
44001;BME280;29660;42.892;24.710;2024-02-14T01:29:31;96697.03;;;6.24;100.00
44001;BME280;29660;42.892;24.710;2024-02-14T01:34:53;96697.34;;;6.17;100.00
44001;BME280;29660;42.892;24.710;2024-02-14T01:40:15;96705.53;;;6.26;100.00
44001;BME280;29660;42.892;24.710;2024-02-14T01:45:38;96674.81;;;5.99;100.00
44001;BME280;29660;42.892;24.710;2024-02-14T01:51:02;96692.53;;;6.24;100.00
44001;BME280;29660;42.892;24.710;2024-02-14T01:56:25;96696.78;;;6.20;100.00
44001;BME280;29660;42.892;24.710;2024-02-14T02:01:49;96699.97;;;6.07;100.00
44001;BME280;29660;42.892;24.710;2024-02-14T02:07:13;96719.56;;;6.06;100.00
44001;BME280;29660;42.892;24.710;2024-02-14T02:12:36;96719.28;;;6.12;100.00
44001;BME280;29660;42.892;24.710;2024-02-14T02:18:02;96716.91;;;6.06;100.00
44001;BME280;29660;42.892;24.710;2024-02-14T02:23:27;96730.94;;;6.11;100.00
44001;BME280;29660;42.892;24.710;2024-02-14T02:28:49;96730.41;;;6.14;100.00
44001;BME280;29660;42.892;24.710;2024-02-14T02:34:11;96736.50;;;6.20;100.00
44001;BME280;29660;42.892;24.710;2024-02-14T02:39:34;96739.41;;;6.03;100.00
44001;BME280;29660;42.892;24.710;2024-02-14T02:44:57;96708.09;;;5.59;100.00
44001;BME280;29660;42.892;24.710;2024-02-14T02:50:19;96755.75;;;5.75;100.00
44001;BME280;29660;42.892;24.710;2024-02-14T02:55:43;96705.41;;;5.44;100.00
44001;BME280;29660;42.892;24.710;2024-02-14T03:01:09;96774.34;;;5.95;100.00
44001;BME280;29660;42.892;24.710;2024-02-14T03:06:31;96770.13;;;6.09;100.00
44001;BME280;29660;42.892;24.710;2024-02-14T03:11:53;96780.19;;;6.02;100.00
44001;BME280;29660;42.892;24.710;2024-02-14T03:17:18;96670.72;;;5.20;100.00
44001;BME280;29660;42.892;24.710;2024-02-14T03:22:41;96710.97;;;5.53;100.00
44001;BME280;29660;42.892;24.710;2024-02-14T03:28:06;96792.09;;;6.15;100.00
44001;BME280;29660;42.892;24.710;2024-02-14T03:33:30;96716.03;;;5.59;100.00
44001;BME280;29660;42.892;24.710;2024-02-14T03:38:53;96760.78;;;5.76;100.00
44001;BME280;29660;42.892;24.710;2024-02-14T03:44:15;96816.19;;;6.03;100.00
44001;BME280;29660;42.892;24.710;2024-02-14T03:49:37;96741.94;;;5.52;100.00
44001;BME280;29660;42.892;24.710;2024-02-14T03:55:00;96823.81;;;5.89;100.00
44001;BME280;29660;42.892;24.710;2024-02-14T04:00:22;96835.66;;;5.77;100.00
44001;BME280;29660;42.892;24.710;2024-02-14T04:05:44;96788.47;;;5.43;100.00
44001;BME280;29660;42.892;24.710;2024-02-14T04:11:06;96836.19;;;5.79;100.00
44001;BME280;29660;42.892;24.710;2024-02-14T04:16:28;96847.22;;;5.50;100.00
44001;BME280;29660;42.892;24.710;2024-02-14T04:21:51;96855.88;;;5.46;100.00
44001;BME280;29660;42.892;24.710;2024-02-14T04:27:13;96864.59;;;5.41;100.00
44001;BME280;29660;42.892;24.710;2024-02-14T04:32:35;96863.28;;;5.38;100.00
44001;BME280;29660;42.892;24.710;2024-02-14T04:37:58;96851.94;;;5.48;100.00
44001;BME280;29660;42.892;24.710;2024-02-14T04:43:20;96869.69;;;5.53;100.00
44001;BME280;29660;42.892;24.710;2024-02-14T04:48:42;96904.34;;;5.51;100.00
44001;BME280;29660;42.892;24.710;2024-02-14T04:54:04;96895.06;;;5.49;100.00
44001;BME280;29660;42.892;24.710;2024-02-14T04:59:29;96760.00;;;4.60;100.00
44001;BME280;29660;42.892;24.710;2024-02-14T05:04:51;96897.22;;;5.57;100.00
44001;BME280;29660;42.892;24.710;2024-02-14T05:10:13;96920.44;;;5.50;100.00
44001;BME280;29660;42.892;24.710;2024-02-14T05:15:35;96919.16;;;5.52;100.00
44001;BME280;29660;42.892;24.710;2024-02-14T05:20:57;96911.97;;;5.48;100.00
44001;BME280;29660;42.892;24.710;2024-02-14T05:26:20;96918.84;;;5.44;100.00
44001;BME280;29660;42.892;24.710;2024-02-14T05:31:46;96932.09;;;5.54;100.00
44001;BME280;29660;42.892;24.710;2024-02-14T05:37:09;96771.47;;;4.44;100.00
44001;BME280;29660;42.892;24.710;2024-02-14T05:42:31;96949.16;;;5.73;100.00
44001;BME280;29660;42.892;24.710;2024-02-14T05:47:54;96962.88;;;5.65;100.00
44001;BME280;29660;42.892;24.710;2024-02-14T05:53:16;96950.88;;;5.52;100.00
44001;BME280;29660;42.892;24.710;2024-02-14T05:58:38;96979.31;;;5.72;100.00
44001;BME280;29660;42.892;24.710;2024-02-14T06:04:00;96980.00;;;5.57;100.00
44001;BME280;29660;42.892;24.710;2024-02-14T06:09:22;96989.59;;;5.63;100.00
44001;BME280;29660;42.892;24.710;2024-02-14T06:14:48;96795.38;;;4.27;100.00
44001;BME280;29660;42.892;24.710;2024-02-14T06:20:11;97009.16;;;5.62;100.00
44001;BME280;29660;42.892;24.710;2024-02-14T06:25:34;97010.31;;;5.77;100.00
44001;BME280;29660;42.892;24.710;2024-02-14T06:30:56;97017.47;;;5.39;100.00
44001;BME280;29660;42.892;24.710;2024-02-14T06:36:19;97023.13;;;5.58;100.00
44001;BME280;29660;42.892;24.710;2024-02-14T06:41:41;97025.50;;;5.54;100.00
44001;BME280;29660;42.892;24.710;2024-02-14T06:47:03;96903.78;;;4.75;100.00
44001;BME280;29660;42.892;24.710;2024-02-14T06:52:26;97061.00;;;5.58;100.00
44001;BME280;29660;42.892;24.710;2024-02-14T06:57:48;97053.28;;;5.57;100.00
44001;BME280;29660;42.892;24.710;2024-02-14T07:03:10;96970.69;;;4.80;100.00
44001;BME280;29660;42.892;24.710;2024-02-14T07:08:32;97075.00;;;5.59;100.00
44001;BME280;29660;42.892;24.710;2024-02-14T07:13:56;97075.72;;;5.49;100.00
44001;BME280;29660;42.892;24.710;2024-02-14T07:19:18;97087.50;;;5.69;100.00
44001;BME280;29660;42.892;24.710;2024-02-14T07:24:40;97060.22;;;5.31;100.00
44001;BME280;29660;42.892;24.710;2024-02-14T07:30:02;97099.13;;;5.62;100.00
44001;BME280;29660;42.892;24.710;2024-02-14T07:35:25;97085.22;;;5.18;100.00
44001;BME280;29660;42.892;24.710;2024-02-14T07:40:47;97071.00;;;5.24;100.00
44001;BME280;29660;42.892;24.710;2024-02-14T07:46:09;97055.50;;;5.06;100.00
44001;BME280;29660;42.892;24.710;2024-02-14T07:51:33;97118.69;;;5.34;100.00
44001;BME280;29660;42.892;24.710;2024-02-14T07:56:58;97028.25;;;4.78;100.00
44001;BME280;29660;42.892;24.710;2024-02-14T08:02:21;97133.75;;;5.34;100.00
44001;BME280;29660;42.892;24.710;2024-02-14T08:07:44;97003.03;;;4.65;100.00
44001;BME280;29660;42.892;24.710;2024-02-14T08:13:07;97136.38;;;5.61;100.00
44001;BME280;29660;42.892;24.710;2024-02-14T08:18:29;97128.09;;;5.47;100.00
44001;BME280;29660;42.892;24.710;2024-02-14T08:23:55;97041.38;;;4.95;100.00
44001;BME280;29660;42.892;24.710;2024-02-14T08:29:17;97148.59;;;5.62;100.00
44001;BME280;29660;42.892;24.710;2024-02-14T08:34:40;97156.56;;;5.67;100.00
44001;BME280;29660;42.892;24.710;2024-02-14T08:40:02;97164.75;;;5.65;100.00
44001;BME280;29660;42.892;24.710;2024-02-14T08:45:27;97123.53;;;5.43;100.00
44001;BME280;29660;42.892;24.710;2024-02-14T08:50:52;97036.44;;;4.77;100.00
44001;BME280;29660;42.892;24.710;2024-02-14T08:56:14;97177.28;;;5.75;100.00
44001;BME280;29660;42.892;24.710;2024-02-14T09:01:37;97186.31;;;5.52;100.00
44001;BME280;29660;42.892;24.710;2024-02-14T09:06:59;97189.06;;;5.62;100.00
44001;BME280;29660;42.892;24.710;2024-02-14T09:12:21;97194.75;;;5.49;100.00
44001;BME280;29660;42.892;24.710;2024-02-14T09:17:45;97067.75;;;4.90;100.00
44001;BME280;29660;42.892;24.710;2024-02-14T09:23:07;97186.47;;;5.95;100.00
44001;BME280;29660;42.892;24.710;2024-02-14T09:28:30;97108.00;;;5.51;100.00
44001;BME280;29660;42.892;24.710;2024-02-14T09:33:52;97199.78;;;6.05;100.00
44001;BME280;29660;42.892;24.710;2024-02-14T09:39:19;97085.34;;;5.33;100.00
44001;BME280;29660;42.892;24.710;2024-02-14T09:44:41;97182.78;;;5.96;100.00
44001;BME280;29660;42.892;24.710;2024-02-14T09:50:06;97169.03;;;5.99;100.00
44001;BME280;29660;42.892;24.710;2024-02-14T09:55:29;97191.84;;;6.05;100.00
44001;BME280;29660;42.892;24.710;2024-02-14T10:00:52;96931.34;;;4.30;100.00
44001;BME280;29660;42.892;24.710;2024-02-14T10:06:14;97095.41;;;5.63;100.00
44001;BME280;29660;42.892;24.710;2024-02-14T10:11:37;97181.72;;;6.29;100.00
44001;BME280;29660;42.892;24.710;2024-02-14T10:16:59;97172.63;;;6.20;100.00
44001;BME280;29660;42.892;24.710;2024-02-14T10:22:21;97172.94;;;6.23;100.00
44001;BME280;29660;42.892;24.710;2024-02-14T10:27:44;97176.44;;;6.29;100.00
44001;BME280;29660;42.892;24.710;2024-02-14T10:33:08;97098.91;;;5.42;100.00
44001;BME280;29660;42.892;24.710;2024-02-14T10:38:37;97178.56;;;5.73;100.00
44001;BME280;29660;42.892;24.710;2024-02-14T10:44:04;97180.13;;;5.69;100.00
44001;BME280;29660;42.892;24.710;2024-02-14T10:49:27;97189.66;;;5.70;100.00
44001;BME280;29660;42.892;24.710;2024-02-14T10:54:55;97182.53;;;5.70;100.00
44001;BME280;29660;42.892;24.710;2024-02-14T11:00:21;97154.22;;;5.71;100.00
44001;BME280;29660;42.892;24.710;2024-02-14T11:05:47;97181.28;;;5.78;100.00
44001;BME280;29660;42.892;24.710;2024-02-14T11:11:11;97183.03;;;5.67;100.00
44001;BME280;29660;42.892;24.710;2024-02-14T11:16:33;97174.22;;;5.61;100.00
44001;BME280;29660;42.892;24.710;2024-02-14T11:21:57;97174.78;;;5.63;100.00
44001;BME280;29660;42.892;24.710;2024-02-14T11:27:20;97021.03;;;4.68;100.00
44001;BME280;29660;42.892;24.710;2024-02-14T11:32:50;97181.84;;;5.58;100.00
44001;BME280;29660;42.892;24.710;2024-02-14T11:38:12;97273.53;;;5.69;100.00
44001;BME280;29660;42.892;24.710;2024-02-14T11:43:35;97177.66;;;5.89;100.00
44001;BME280;29660;42.892;24.710;2024-02-14T11:49:01;97156.91;;;5.76;100.00
44001;BME280;29660;42.892;24.710;2024-02-14T11:54:24;97160.03;;;6.00;100.00
44001;BME280;29660;42.892;24.710;2024-02-14T11:59:49;97135.91;;;5.96;100.00
44001;BME280;29660;42.892;24.710;2024-02-14T12:05:13;97167.59;;;5.86;100.00
44001;BME280;29660;42.892;24.710;2024-02-14T12:10:36;97176.78;;;6.05;100.00
44001;BME280;29660;42.892;24.710;2024-02-14T12:16:01;97179.50;;;6.15;100.00
44001;BME280;29660;42.892;24.710;2024-02-14T12:21:23;97183.44;;;6.13;100.00
44001;BME280;29660;42.892;24.710;2024-02-14T12:26:48;97168.69;;;6.22;100.00
44001;BME280;29660;42.892;24.710;2024-02-14T12:32:10;97168.25;;;6.35;100.00
44001;BME280;29660;42.892;24.710;2024-02-14T12:37:33;97166.75;;;6.12;100.00
44001;BME280;29660;42.892;24.710;2024-02-14T12:42:55;97175.75;;;6.11;100.00
44001;BME280;29660;42.892;24.710;2024-02-14T12:48:22;97045.50;;;5.40;100.00
44001;BME280;29660;42.892;24.710;2024-02-14T12:53:46;97129.53;;;5.92;100.00
44001;BME280;29660;42.892;24.710;2024-02-14T12:59:08;97177.34;;;6.12;100.00
44001;BME280;29660;42.892;24.710;2024-02-14T13:04:34;97182.53;;;6.34;100.00
44001;BME280;29660;42.892;24.710;2024-02-14T13:09:56;97182.72;;;6.23;100.00
44001;BME280;29660;42.892;24.710;2024-02-14T13:15:19;97197.34;;;6.30;100.00
44001;BME280;29660;42.892;24.710;2024-02-14T13:20:41;97264.34;;;6.31;100.00
44001;BME280;29660;42.892;24.710;2024-02-14T13:26:04;97203.13;;;6.22;100.00
44001;BME280;29660;42.892;24.710;2024-02-14T13:31:26;97221.16;;;6.25;100.00
44001;BME280;29660;42.892;24.710;2024-02-14T13:36:48;97189.16;;;6.00;100.00
44001;BME280;29660;42.892;24.710;2024-02-14T13:42:11;97215.28;;;6.23;100.00
44001;BME280;29660;42.892;24.710;2024-02-14T13:47:33;97209.00;;;6.29;100.00
44001;BME280;29660;42.892;24.710;2024-02-14T13:52:55;97217.97;;;6.28;100.00
44001;BME280;29660;42.892;24.710;2024-02-14T13:58:17;97217.63;;;6.14;100.00
44001;BME280;29660;42.892;24.710;2024-02-14T14:03:40;97134.00;;;5.59;100.00
44001;BME280;29660;42.892;24.710;2024-02-14T14:09:03;97221.34;;;6.19;100.00
44001;BME280;29660;42.892;24.710;2024-02-14T14:14:25;97214.19;;;6.14;100.00
44001;BME280;29660;42.892;24.710;2024-02-14T14:19:48;97220.06;;;6.21;100.00
44001;BME280;29660;42.892;24.710;2024-02-14T14:25:10;96911.72;;;4.21;100.00
44001;BME280;29660;42.892;24.710;2024-02-14T14:30:33;97238.38;;;6.28;100.00
44001;BME280;29660;42.892;24.710;2024-02-14T14:35:55;97107.13;;;5.40;100.00
44001;BME280;29660;42.892;24.710;2024-02-14T14:41:18;97236.78;;;6.27;100.00
44001;BME280;29660;42.892;24.710;2024-02-14T14:46:40;97235.22;;;6.31;100.00
44001;BME280;29660;42.892;24.710;2024-02-14T14:52:03;96932.06;;;3.98;100.00
44001;BME280;29660;42.892;24.710;2024-02-14T14:57:26;97241.75;;;6.18;100.00
44001;BME280;29660;42.892;24.710;2024-02-14T15:02:48;97248.53;;;6.09;100.00
44001;BME280;29660;42.892;24.710;2024-02-14T15:08:11;97239.84;;;6.13;100.00
44001;BME280;29660;42.892;24.710;2024-02-14T15:13:34;96723.50;;;2.68;100.00
44001;BME280;29660;42.892;24.710;2024-02-14T15:18:56;97110.97;;;5.28;100.00
44001;BME280;29660;42.892;24.710;2024-02-14T15:24:18;97238.94;;;5.98;100.00
44001;BME280;29660;42.892;24.710;2024-02-14T15:29:42;97222.16;;;5.65;100.00
44001;BME280;29660;42.892;24.710;2024-02-14T15:35:23;97248.19;;;6.00;100.00
44001;BME280;29660;42.892;24.710;2024-02-14T15:40:49;97201.31;;;5.74;100.00
44001;BME280;29660;42.892;24.710;2024-02-14T15:46:14;97262.06;;;6.12;100.00
44001;BME280;29660;42.892;24.710;2024-02-14T15:51:36;97265.69;;;6.01;100.00
44001;BME280;29660;42.892;24.710;2024-02-14T15:56:59;97265.81;;;5.89;100.00
44001;BME280;29660;42.892;24.710;2024-02-14T16:02:22;97285.22;;;5.95;100.00
44001;BME280;29660;42.892;24.710;2024-02-14T16:07:44;97292.53;;;5.88;100.00
44001;BME280;29660;42.892;24.710;2024-02-14T16:13:07;97172.53;;;5.01;100.00
44001;BME280;29660;42.892;24.710;2024-02-14T16:18:29;97217.53;;;5.28;100.00
44001;BME280;29660;42.892;24.710;2024-02-14T16:23:51;97301.38;;;5.94;100.00
44001;BME280;29660;42.892;24.710;2024-02-14T16:29:13;97281.22;;;5.71;100.00
44001;BME280;29660;42.892;24.710;2024-02-14T16:34:35;97320.13;;;5.92;100.00
44001;BME280;29660;42.892;24.710;2024-02-14T16:39:57;97319.75;;;5.83;100.00
44001;BME280;29660;42.892;24.710;2024-02-14T16:45:20;97328.97;;;5.81;100.00
44001;BME280;29660;42.892;24.710;2024-02-14T16:50:42;97317.03;;;5.56;100.00
44001;BME280;29660;42.892;24.710;2024-02-14T16:56:06;97350.47;;;5.62;100.00
44001;BME280;29660;42.892;24.710;2024-02-14T17:01:29;97354.22;;;5.66;100.00
44001;BME280;29660;42.892;24.710;2024-02-14T17:06:55;97354.53;;;5.70;100.00
44001;BME280;29660;42.892;24.710;2024-02-14T17:12:17;97307.97;;;5.30;100.00
44001;BME280;29660;42.892;24.710;2024-02-14T17:17:40;97342.38;;;5.52;100.00
44001;BME280;29660;42.892;24.710;2024-02-14T17:23:02;97227.09;;;4.68;100.00
44001;BME280;29660;42.892;24.710;2024-02-14T17:28:24;97242.91;;;4.85;100.00
44001;BME280;29660;42.892;24.710;2024-02-14T17:33:47;97365.13;;;5.70;100.00
44001;BME280;29660;42.892;24.710;2024-02-14T17:39:09;97372.00;;;5.71;100.00
44001;BME280;29660;42.892;24.710;2024-02-14T17:44:32;97364.41;;;5.80;100.00
44001;BME280;29660;42.892;24.710;2024-02-14T17:49:54;97364.13;;;5.76;100.00
44001;BME280;29660;42.892;24.710;2024-02-14T17:55:17;97370.81;;;5.84;100.00
44001;BME280;29660;42.892;24.710;2024-02-14T18:00:40;97366.72;;;5.71;100.00
44001;BME280;29660;42.892;24.710;2024-02-14T18:06:02;97352.97;;;5.52;100.00
44001;BME280;29660;42.892;24.710;2024-02-14T18:11:26;97371.38;;;5.64;100.00
44001;BME280;29660;42.892;24.710;2024-02-14T18:16:48;97331.59;;;5.37;100.00
44001;BME280;29660;42.892;24.710;2024-02-14T18:22:11;97380.84;;;5.60;100.00
44001;BME280;29660;42.892;24.710;2024-02-14T18:27:33;97391.19;;;5.61;100.00
44001;BME280;29660;42.892;24.710;2024-02-14T18:32:55;97388.84;;;5.65;100.00
44001;BME280;29660;42.892;24.710;2024-02-14T18:38:17;97264.50;;;4.82;100.00
44001;BME280;29660;42.892;24.710;2024-02-14T18:43:42;97403.91;;;5.64;100.00
44001;BME280;29660;42.892;24.710;2024-02-14T18:49:05;97418.94;;;5.59;100.00
44001;BME280;29660;42.892;24.710;2024-02-14T18:54:27;97416.78;;;5.56;100.00
44001;BME280;29660;42.892;24.710;2024-02-14T18:59:49;97238.06;;;4.60;100.00
44001;BME280;29660;42.892;24.710;2024-02-14T19:05:11;97425.09;;;5.64;100.00
44001;BME280;29660;42.892;24.710;2024-02-14T19:10:34;97427.00;;;5.69;100.00
44001;BME280;29660;42.892;24.710;2024-02-14T19:15:56;97348.66;;;5.07;100.00
44001;BME280;29660;42.892;24.710;2024-02-14T19:21:22;97440.34;;;5.57;100.00
44001;BME280;29660;42.892;24.710;2024-02-14T19:26:44;97412.97;;;5.47;100.00
44001;BME280;29660;42.892;24.710;2024-02-14T19:32:06;97429.38;;;5.49;100.00
44001;BME280;29660;42.892;24.710;2024-02-14T19:37:29;97305.06;;;4.54;100.00
44001;BME280;29660;42.892;24.710;2024-02-14T19:42:51;97143.53;;;3.56;100.00
44001;BME280;29660;42.892;24.710;2024-02-14T19:48:14;97351.09;;;4.92;100.00
44001;BME280;29660;42.892;24.710;2024-02-14T19:53:37;97432.28;;;5.47;100.00
44001;BME280;29660;42.892;24.710;2024-02-14T19:58:59;97341.47;;;4.86;100.00
44001;BME280;29660;42.892;24.710;2024-02-14T20:04:23;97427.47;;;5.44;100.00
44001;BME280;29660;42.892;24.710;2024-02-14T20:09:45;97305.28;;;4.70;100.00
44001;BME280;29660;42.892;24.710;2024-02-14T20:15:08;97358.03;;;4.98;100.00
44001;BME280;29660;42.892;24.710;2024-02-14T20:20:30;97427.53;;;5.49;100.00
44001;BME280;29660;42.892;24.710;2024-02-14T20:25:53;97063.63;;;3.10;100.00
44001;BME280;29660;42.892;24.710;2024-02-14T20:31:15;97420.16;;;5.51;100.00
44001;BME280;29660;42.892;24.710;2024-02-14T20:36:37;97424.97;;;5.54;100.00
44001;BME280;29660;42.892;24.710;2024-02-14T20:41:59;97392.59;;;5.30;100.00
44001;BME280;29660;42.892;24.710;2024-02-14T20:47:22;97409.78;;;5.28;100.00
44001;BME280;29660;42.892;24.710;2024-02-14T20:52:45;97428.41;;;5.38;100.00
44001;BME280;29660;42.892;24.710;2024-02-14T20:58:07;97418.88;;;5.37;100.00
44001;BME280;29660;42.892;24.710;2024-02-14T21:03:30;97354.84;;;4.96;100.00
44001;BME280;29660;42.892;24.710;2024-02-14T21:08:53;97401.75;;;5.39;100.00
44001;BME280;29660;42.892;24.710;2024-02-14T21:14:15;97381.78;;;5.32;100.00
44001;BME280;29660;42.892;24.710;2024-02-14T21:19:38;97258.50;;;4.48;100.00
44001;BME280;29660;42.892;24.710;2024-02-14T21:25:00;97410.41;;;5.35;100.00
44001;BME280;29660;42.892;24.710;2024-02-14T21:30:23;97387.41;;;5.18;100.00
44001;BME280;29660;42.892;24.710;2024-02-14T21:35:48;97425.63;;;5.28;100.00
44001;BME280;29660;42.892;24.710;2024-02-14T21:41:11;97416.34;;;5.25;100.00
44001;BME280;29660;42.892;24.710;2024-02-14T21:46:33;97422.81;;;5.34;100.00
44001;BME280;29660;42.892;24.710;2024-02-14T21:51:56;97417.78;;;5.33;100.00
44001;BME280;29660;42.892;24.710;2024-02-14T21:57:19;97433.50;;;5.23;100.00
44001;BME280;29660;42.892;24.710;2024-02-14T22:02:41;97424.34;;;5.30;100.00
44001;BME280;29660;42.892;24.710;2024-02-14T22:08:04;97384.56;;;5.03;100.00
44001;BME280;29660;42.892;24.710;2024-02-14T22:13:26;97428.50;;;5.26;100.00
44001;BME280;29660;42.892;24.710;2024-02-14T22:18:48;97361.09;;;4.73;100.00
44001;BME280;29660;42.892;24.710;2024-02-14T22:24:11;97282.22;;;4.31;100.00
44001;BME280;29660;42.892;24.710;2024-02-14T22:29:33;97433.97;;;5.20;100.00
44001;BME280;29660;42.892;24.710;2024-02-14T22:34:55;97444.94;;;5.28;100.00
44001;BME280;29660;42.892;24.710;2024-02-14T22:40:17;97369.28;;;4.72;100.00
44001;BME280;29660;42.892;24.710;2024-02-14T22:45:40;97447.75;;;5.22;100.00
44001;BME280;29660;42.892;24.710;2024-02-14T22:51:03;97438.38;;;5.14;100.00
44001;BME280;29660;42.892;24.710;2024-02-14T22:56:26;97245.47;;;3.96;100.00
44001;BME280;29660;42.892;24.710;2024-02-14T23:01:49;97441.97;;;5.25;100.00
44001;BME280;29660;42.892;24.710;2024-02-14T23:07:11;97295.03;;;4.39;100.00
44001;BME280;29660;42.892;24.710;2024-02-14T23:12:36;97431.47;;;5.30;100.00
44001;BME280;29660;42.892;24.710;2024-02-14T23:17:58;97427.56;;;5.32;100.00
44001;BME280;29660;42.892;24.710;2024-02-14T23:23:20;97385.59;;;5.02;100.00
44001;BME280;29660;42.892;24.710;2024-02-14T23:28:42;97432.94;;;5.21;100.00
44001;BME280;29660;42.892;24.710;2024-02-14T23:34:04;97434.19;;;5.18;100.00
44001;BME280;29660;42.892;24.710;2024-02-14T23:39:26;97428.22;;;5.23;100.00
44001;BME280;29660;42.892;24.710;2024-02-14T23:44:48;97432.34;;;5.18;100.00
44001;BME280;29660;42.892;24.710;2024-02-14T23:50:12;97225.75;;;3.99;100.00
44001;BME280;29660;42.892;24.710;2024-02-14T23:55:34;97421.38;;;5.10;100.00
